AUA973 LOWW-LOWW
Flight info
| Callsign | AUA973 |
|---|---|
| Flight time | 0h 16m |
| Altitude | 36000 |
| Route | BUCKU |
| Aircraft | A320/M-SDE3FGHIRWY/LB1 |
Departure
| Time | 2026-04-25 19:55 |
|---|---|
| Airport | Vienna International Airport (LOWW) |
Arrival
| Time | 2026-04-25 20:11 |
|---|---|
| Airport | Vienna International Airport (LOWW) |
| Time | Latitude | Longitude | Altitude | Speed | Heading |
|---|---|---|---|---|---|
| 2026-04-25 19:54 | 48.31629 | 16.61723 | 5008 ft | 263 kts | 136° |
| 2026-04-25 19:55 | 48.29882 | 16.64282 | 5008 ft | 261 kts | 136° |
| 2026-04-25 19:55 | 48.28576 | 16.66173 | 5009 ft | 261 kts | 136° |
| 2026-04-25 19:55 | 48.27271 | 16.68060 | 5009 ft | 260 kts | 136° |
| 2026-04-25 19:55 | 48.25977 | 16.69944 | 4819 ft | 258 kts | 136° |
| 2026-04-25 19:56 | 48.24695 | 16.71829 | 4490 ft | 258 kts | 135° |
| 2026-04-25 19:56 | 48.23417 | 16.73709 | 4169 ft | 257 kts | 135° |
| 2026-04-25 19:56 | 48.22142 | 16.75573 | 4003 ft | 256 kts | 136° |
| 2026-04-25 19:56 | 48.20858 | 16.77424 | 4005 ft | 257 kts | 136° |
| 2026-04-25 19:57 | 48.19563 | 16.79280 | 4007 ft | 258 kts | 136° |
| 2026-04-25 19:57 | 48.18267 | 16.81139 | 4006 ft | 258 kts | 136° |
| 2026-04-25 19:57 | 48.16971 | 16.82997 | 4006 ft | 258 kts | 136° |
| 2026-04-25 19:57 | 48.15674 | 16.84853 | 4006 ft | 258 kts | 136° |
| 2026-04-25 19:58 | 48.14377 | 16.86709 | 4005 ft | 258 kts | 136° |
| 2026-04-25 19:58 | 48.13077 | 16.88573 | 4005 ft | 259 kts | 136° |
| 2026-04-25 19:58 | 48.11794 | 16.90416 | 4004 ft | 259 kts | 136° |
| 2026-04-25 19:58 | 48.10493 | 16.92286 | 4005 ft | 260 kts | 136° |
| 2026-04-25 19:59 | 48.09191 | 16.94157 | 4003 ft | 260 kts | 136° |
| 2026-04-25 19:59 | 48.07871 | 16.96052 | 4006 ft | 260 kts | 136° |
| 2026-04-25 19:59 | 48.06569 | 16.97921 | 4006 ft | 260 kts | 136° |
| 2026-04-25 19:59 | 48.05284 | 16.99765 | 4006 ft | 259 kts | 136° |
| 2026-04-25 20:00 | 48.04040 | 17.01708 | 4002 ft | 258 kts | 124° |
| 2026-04-25 20:00 | 48.03397 | 17.03243 | 4008 ft | 259 kts | 118° |
| 2026-04-25 20:00 | 48.02266 | 17.06370 | 4001 ft | 257 kts | 116° |
| 2026-04-25 20:00 | 48.01426 | 17.08728 | 4006 ft | 257 kts | 116° |
| 2026-04-25 20:01 | 47.99722 | 17.13432 | 4005 ft | 258 kts | 121° |
| 2026-04-25 20:01 | 47.98457 | 17.15282 | 4001 ft | 257 kts | 154° |
| 2026-04-25 20:01 | 47.96752 | 17.15908 | 4002 ft | 253 kts | 186° |
| 2026-04-25 20:02 | 47.95119 | 17.15143 | 4004 ft | 245 kts | 219° |
| 2026-04-25 20:02 | 47.94053 | 17.13279 | 4005 ft | 234 kts | 252° |
| 2026-04-25 20:02 | 47.93662 | 17.10957 | 4007 ft | 230 kts | 264° |
| 2026-04-25 20:02 | 47.93434 | 17.08607 | 4007 ft | 229 kts | 266° |
| 2026-04-25 20:03 | 47.93229 | 17.06243 | 4008 ft | 230 kts | 266° |
| 2026-04-25 20:03 | 47.93304 | 17.03907 | 4003 ft | 224 kts | 292° |
| 2026-04-25 20:03 | 47.94228 | 17.02120 | 4009 ft | 220 kts | 326° |
| 2026-04-25 20:03 | 47.95532 | 17.00906 | 4008 ft | 221 kts | 326° |
| 2026-04-25 20:04 | 47.96770 | 16.99549 | 4007 ft | 221 kts | 314° |
| 2026-04-25 20:04 | 47.97677 | 16.97704 | 4009 ft | 221 kts | 301° |
| 2026-04-25 20:04 | 47.98385 | 16.95696 | 4007 ft | 222 kts | 298° |
| 2026-04-25 20:04 | 47.99065 | 16.93632 | 4007 ft | 222 kts | 297° |
| 2026-04-25 20:05 | 47.99750 | 16.91558 | 4006 ft | 223 kts | 298° |
| 2026-04-25 20:05 | 48.00426 | 16.89499 | 4005 ft | 215 kts | 297° |
| 2026-04-25 20:05 | 48.01055 | 16.87570 | 3998 ft | 199 kts | 297° |
| 2026-04-25 20:05 | 48.01662 | 16.85743 | 4003 ft | 195 kts | 298° |
| 2026-04-25 20:06 | 48.02253 | 16.83956 | 4031 ft | 185 kts | 298° |
| 2026-04-25 20:06 | 48.02790 | 16.82312 | 4001 ft | 168 kts | 298° |
| 2026-04-25 20:06 | 48.03288 | 16.80793 | 3870 ft | 159 kts | 298° |
| 2026-04-25 20:06 | 48.03771 | 16.79330 | 3702 ft | 156 kts | 298° |
| 2026-04-25 20:07 | 48.04243 | 16.77893 | 3521 ft | 152 kts | 298° |
| 2026-04-25 20:07 | 48.04705 | 16.76483 | 3328 ft | 150 kts | 298° |
| 2026-04-25 20:07 | 48.05164 | 16.75093 | 3117 ft | 149 kts | 300° |
| 2026-04-25 20:07 | 48.05619 | 16.73714 | 2917 ft | 145 kts | 298° |
| 2026-04-25 20:08 | 48.06056 | 16.72383 | 2732 ft | 140 kts | 300° |
| 2026-04-25 20:08 | 48.06489 | 16.71086 | 2613 ft | 139 kts | 302° |
| 2026-04-25 20:08 | 48.06921 | 16.69783 | 2398 ft | 139 kts | 299° |
| 2026-04-25 20:08 | 48.07348 | 16.68490 | 2199 ft | 138 kts | 298° |
| 2026-04-25 20:09 | 48.07769 | 16.67202 | 2000 ft | 137 kts | 297° |
| 2026-04-25 20:09 | 48.08183 | 16.65939 | 1823 ft | 134 kts | 298° |
| 2026-04-25 20:09 | 48.08593 | 16.64683 | 1674 ft | 136 kts | 297° |
| 2026-04-25 20:09 | 48.09021 | 16.63382 | 1457 ft | 141 kts | 296° |
| 2026-04-25 20:10 | 48.09436 | 16.62098 | 1258 ft | 137 kts | 296° |
| 2026-04-25 20:10 | 48.09860 | 16.60803 | 1103 ft | 141 kts | 296° |
| 2026-04-25 20:10 | 48.10280 | 16.59492 | 898 ft | 137 kts | 294° |
| 2026-04-25 20:10 | 48.10692 | 16.58225 | 738 ft | 134 kts | 296° |
| 2026-04-25 20:11 | 48.11090 | 16.56990 | 627 ft | 124 kts | 300° |
| 2026-04-25 20:11 | 48.11395 | 16.56058 | 619 ft | 63 kts | 297° |
| 2026-04-25 20:11 | 48.11546 | 16.55600 | 614 ft | 38 kts | 297° |
| 2026-04-25 20:11 | 48.11669 | 16.55334 | 609 ft | 25 kts | 314° |
| 2026-04-25 20:12 | 48.11769 | 16.55188 | 614 ft | 12 kts | 317° |
| 2026-04-25 20:12 | 48.11842 | 16.55142 | 611 ft | 12 kts | 350° |
| 2026-04-25 20:12 | 48.11883 | 16.55199 | 609 ft | 9 kts | 100° |
| 2026-04-25 20:12 | 48.11876 | 16.55226 | 609 ft | 9 kts | 115° |
| 2026-04-25 20:13 | 48.11797 | 16.55470 | 612 ft | 22 kts | 112° |
| 2026-04-25 20:13 | 48.11723 | 16.55696 | 618 ft | 25 kts | 117° |
| 2026-04-25 20:13 | 48.11643 | 16.55941 | 609 ft | 27 kts | 116° |
| 2026-04-25 20:13 | 48.11562 | 16.56192 | 614 ft | 26 kts | 117° |
| 2026-04-25 20:14 | 48.11486 | 16.56426 | 616 ft | 24 kts | 116° |
| 2026-04-25 20:14 | 48.11416 | 16.56642 | 618 ft | 22 kts | 115° |
| 2026-04-25 20:14 | 48.11351 | 16.56842 | 619 ft | 21 kts | 116° |
| 2026-04-25 20:14 | 48.11291 | 16.57028 | 615 ft | 19 kts | 116° |
| 2026-04-25 20:15 | 48.11234 | 16.57198 | 617 ft | 17 kts | 112° |
| 2026-04-25 20:15 | 48.11292 | 16.57317 | 620 ft | 15 kts | 26° |
| 2026-04-25 20:15 | 48.11384 | 16.57383 | 609 ft | 15 kts | 26° |
| 2026-04-25 20:15 | 48.11488 | 16.57455 | 609 ft | 18 kts | 18° |
| 2026-04-25 20:16 | 48.11612 | 16.57429 | 615 ft | 19 kts | 344° |
| 2026-04-25 20:16 | 48.11737 | 16.57377 | 612 ft | 17 kts | 344° |
| 2026-04-25 20:16 | 48.11821 | 16.57315 | 616 ft | 13 kts | 307° |
| 2026-04-25 20:16 | 48.11868 | 16.57198 | 620 ft | 13 kts | 319° |
| 2026-04-25 20:17 | 48.11919 | 16.57088 | 610 ft | 13 kts | 295° |
| 2026-04-25 20:17 | 48.11957 | 16.56968 | 613 ft | 12 kts | 296° |
| 2026-04-25 20:17 | 48.11998 | 16.56908 | 617 ft | 9 kts | 16° |
| 2026-04-25 20:17 | 48.12025 | 16.56930 | 618 ft | 0 kts | 25° |